Edzard Schulte — 2CVX9 — position and weather

sailwx.info

Track history (hours):
 
Tides and Currents Weather Stations Pressure Air Temp Water Temp Dewpoint Dewpoint Depression Visibility Wind Speed Wind Dir Waves Ship Positions

Edzard Schulte

Last reported at 2017-Apr-20 17:04 UTC. Time now 2017-Apr-23 18:00 UTC.
Position N 45°30' W 073°31'.

Length 145 m; draft 7.9 m.

Type: Tanker. MMSI: 235076245.

Date/timePositionNaut miles runAvg speedWind from/ knotsBaromVisibWave heightAir tempDewpointWater temp
2017-Apr-20 17:04N 45°30' W 073°31'1 0.6
2017-Apr-20 16:11N 45°30' W 073°31'0 1.2
2017-Apr-20 15:53N 45°29' W 073°31'1 1.4
2017-Apr-20 15:30N 45°29' W 073°31'2 3.3
2017-Apr-20 15:00N 45°27' W 073°30'2 4.5
2017-Apr-20 14:30N 45°25' W 073°31'2 2.4
2017-Apr-20 13:30N 45°24' W 073°34'2 3.9
2017-Apr-20 12:57N 45°24' W 073°37'3 6.6
2017-Apr-20 12:30N 45°25' W 073°41'5 9.5
2017-Apr-20 12:00N 45°24' W 073°48'612.1
2017-Apr-20 11:30N 45°20' W 073°54'1 2.0
2017-Apr-20 11:00N 45°19' W 073°55'1 1.6
2017-Apr-20 10:30N 45°18' W 073°56'0 0.0
2017-Apr-20 10:00N 45°18' W 073°56'1 1.3
2017-Apr-20 09:30N 45°18' W 073°56'5 7.4
2017-Apr-20 08:53N 45°14' W 074°00'510.7
2017-Apr-20 08:26N 45°14' W 074°07'  
2017-Apr-11 03:02N 45°14' W 074°01'0 8.3
2017-Apr-11 03:00N 45°14' W 074°01'5 9.1
2017-Apr-11 02:30N 45°17' W 073°57'2 3.2
2017-Apr-11 02:00N 45°18' W 073°56'1 1.5
2017-Apr-11 01:30N 45°19' W 073°55'0 0.8
2017-Apr-11 01:01N 45°19' W 073°55'3 6.5
2017-Apr-11 00:30N 45°21' W 073°51'510.4
2017-Apr-11 00:00N 45°24' W 073°45'4 7.5
2017-Apr-10 23:29N 45°25' W 073°40'3 5.7
2017-Apr-10 22:56N 45°24' W 073°35'1 2.2
2017-Apr-10 22:30N 45°24' W 073°34'1 2.1
2017-Apr-10 21:56N 45°24' W 073°32'  
Track history (hours):
 
Tides and Currents Weather Stations Pressure Air Temp Water Temp Dewpoint Dewpoint Depression Visibility Wind Speed Wind Dir Waves Ship Positions

Edzard Schulte

Last reported at 2017-Apr-20 17:04 UTC. Time now 2017-Apr-23 18:00 UTC.
Position N 45°30' W 073°31'.

Length 145 m; draft 7.9 m.

Type: Tanker. MMSI: 235076245.

Date/timePositionNaut miles runAvg speedWind from/ knotsBaromVisibWave heightAir tempDewpointWater temp
2017-Apr-20 17:04N 45°30' W 073°31'1 0.6
2017-Apr-20 16:11N 45°30' W 073°31'0 1.2
2017-Apr-20 15:53N 45°29' W 073°31'1 1.4
2017-Apr-20 15:30N 45°29' W 073°31'2 3.3
2017-Apr-20 15:00N 45°27' W 073°30'2 4.5
2017-Apr-20 14:30N 45°25' W 073°31'2 2.4
2017-Apr-20 13:30N 45°24' W 073°34'2 3.9
2017-Apr-20 12:57N 45°24' W 073°37'3 6.6
2017-Apr-20 12:30N 45°25' W 073°41'5 9.5
2017-Apr-20 12:00N 45°24' W 073°48'612.1
2017-Apr-20 11:30N 45°20' W 073°54'1 2.0
2017-Apr-20 11:00N 45°19' W 073°55'1 1.6
2017-Apr-20 10:30N 45°18' W 073°56'0 0.0
2017-Apr-20 10:00N 45°18' W 073°56'1 1.3
2017-Apr-20 09:30N 45°18' W 073°56'5 7.4
2017-Apr-20 08:53N 45°14' W 074°00'510.7
2017-Apr-20 08:26N 45°14' W 074°07'  
2017-Apr-11 03:02N 45°14' W 074°01'0 8.3
2017-Apr-11 03:00N 45°14' W 074°01'5 9.1
2017-Apr-11 02:30N 45°17' W 073°57'2 3.2
2017-Apr-11 02:00N 45°18' W 073°56'1 1.5
2017-Apr-11 01:30N 45°19' W 073°55'0 0.8
2017-Apr-11 01:01N 45°19' W 073°55'3 6.5
2017-Apr-11 00:30N 45°21' W 073°51'510.4
2017-Apr-11 00:00N 45°24' W 073°45'4 7.5
2017-Apr-10 23:29N 45°25' W 073°40'3 5.7
2017-Apr-10 22:56N 45°24' W 073°35'1 2.2
2017-Apr-10 22:30N 45°24' W 073°34'1 2.1
2017-Apr-10 21:56N 45°24' W 073°32'  

Dump ship's entire track history